createdAt,value
2022-12-03T00:00:56.941Z,0.28
2022-12-03T00:01:56.927Z,0.30
2022-12-03T00:02:57.027Z,0.33
2022-12-03T00:03:57.015Z,0.34
2022-12-03T00:04:56.892Z,0.34
2022-12-03T00:05:56.878Z,0.35
2022-12-03T00:06:56.875Z,0.33
2022-12-03T00:07:56.928Z,0.35
2022-12-03T00:08:56.837Z,0.31
2022-12-03T00:09:56.847Z,0.26
2022-12-03T00:10:56.820Z,0.28
2022-12-03T00:11:56.830Z,0.26
2022-12-03T00:12:56.804Z,0.30
2022-12-03T00:13:56.794Z,0.25
2022-12-03T00:14:57.005Z,0.25
2022-12-03T00:15:56.810Z,0.22
2022-12-03T00:16:56.770Z,0.23
2022-12-03T00:17:56.757Z,0.20
2022-12-03T00:18:56.756Z,0.20
2022-12-03T00:19:56.735Z,0.22
2022-12-03T00:20:56.753Z,0.22
2022-12-03T00:21:56.742Z,0.26
2022-12-03T00:22:56.703Z,0.25
2022-12-03T00:23:56.701Z,0.28
2022-12-03T00:24:56.887Z,0.30
2022-12-03T00:25:56.692Z,0.28
2022-12-03T00:26:56.674Z,0.30
2022-12-03T00:27:56.661Z,0.31
2022-12-03T00:28:56.650Z,0.33
2022-12-03T00:29:56.635Z,0.33
2022-12-03T00:30:56.751Z,0.31
2022-12-03T00:31:56.631Z,0.33
2022-12-03T00:32:56.610Z,0.31
2022-12-03T00:33:56.604Z,0.30
2022-12-03T00:34:56.600Z,0.25
2022-12-03T00:35:56.575Z,0.23
2022-12-03T00:36:56.592Z,0.19
2022-12-03T00:37:56.558Z,0.19
2022-12-03T00:38:56.537Z,0.17
2022-12-03T00:39:56.544Z,0.19
2022-12-03T00:40:56.525Z,0.22
2022-12-03T00:41:56.540Z,0.17
2022-12-03T00:42:56.547Z,0.16
2022-12-03T00:43:56.501Z,0.17
2022-12-03T00:44:56.490Z,0.17
2022-12-03T00:45:56.579Z,0.19
2022-12-03T00:46:56.523Z,0.23
2022-12-03T00:47:56.464Z,0.22
2022-12-03T00:48:56.452Z,0.22
2022-12-03T00:49:56.440Z,0.23
2022-12-03T00:50:56.424Z,0.23
2022-12-03T00:51:56.432Z,0.25
2022-12-03T00:52:56.404Z,0.23
2022-12-03T00:53:56.424Z,0.23
2022-12-03T00:54:56.614Z,0.23
2022-12-03T00:55:56.385Z,0.23
2022-12-03T00:56:56.402Z,0.25
2022-12-03T00:57:56.364Z,0.19
2022-12-03T00:58:56.354Z,0.22
2022-12-03T00:59:56.338Z,0.23
2022-12-03T01:00:56.323Z,0.28
2022-12-03T01:01:56.450Z,0.26
2022-12-03T01:02:56.300Z,0.25
2022-12-03T01:03:56.300Z,0.26
2022-12-03T01:04:56.741Z,0.31
2022-12-03T01:05:56.284Z,0.26
2022-12-03T01:06:56.280Z,0.26
2022-12-03T01:07:56.297Z,0.28
2022-12-03T01:08:56.269Z,0.26
2022-12-03T01:09:56.233Z,0.30
2022-12-03T01:10:56.224Z,0.26
2022-12-03T01:11:56.227Z,0.25
2022-12-03T01:12:56.217Z,0.26
2022-12-03T01:13:56.204Z,0.26
2022-12-03T01:14:56.285Z,0.26
2022-12-03T01:15:56.220Z,0.30
2022-12-03T01:16:56.230Z,0.26
2022-12-03T01:17:56.188Z,0.23
2022-12-03T01:18:56.146Z,0.22
2022-12-03T01:19:56.155Z,0.20
2022-12-03T01:20:56.129Z,0.19
2022-12-03T01:21:56.151Z,0.16
2022-12-03T01:22:56.111Z,0.13
2022-12-03T01:23:56.105Z,0.13
2022-12-03T01:24:56.192Z,0.13
2022-12-03T01:25:56.085Z,0.16
2022-12-03T01:26:56.076Z,0.16
2022-12-03T01:27:56.076Z,0.22
2022-12-03T01:28:56.060Z,0.16
2022-12-03T01:29:56.036Z,0.17
2022-12-03T01:30:56.106Z,0.17
2022-12-03T01:31:56.042Z,0.17
2022-12-03T01:32:56.020Z,0.15
2022-12-03T01:33:56.003Z,0.22
2022-12-03T01:34:56.474Z,0.22
2022-12-03T01:35:55.976Z,0.23
2022-12-03T01:36:56.029Z,0.25
2022-12-03T01:37:55.962Z,0.26
2022-12-03T01:38:55.951Z,0.25
2022-12-03T01:39:55.953Z,0.25
2022-12-03T01:40:55.930Z,0.25
2022-12-03T01:41:55.943Z,0.26
2022-12-03T01:42:55.910Z,0.26
2022-12-03T01:43:55.906Z,0.26
2022-12-03T01:44:56.070Z,0.26
2022-12-03T01:45:55.908Z,0.26
2022-12-03T01:46:55.958Z,0.26
2022-12-03T01:47:55.862Z,0.23
2022-12-03T01:48:55.851Z,0.25
2022-12-03T01:49:55.868Z,0.23
2022-12-03T01:50:55.827Z,0.25
2022-12-03T01:51:55.852Z,0.25
2022-12-03T01:52:56.040Z,0.26
2022-12-03T01:53:55.795Z,0.25
2022-12-03T01:54:56.054Z,0.25
2022-12-03T01:55:55.789Z,0.26
2022-12-03T01:56:55.802Z,0.26
2022-12-03T01:57:55.770Z,0.25
2022-12-03T01:58:55.752Z,0.28
2022-12-03T01:59:55.739Z,0.25
2022-12-03T02:00:55.722Z,0.20
2022-12-03T02:01:55.793Z,0.20
2022-12-03T02:02:55.708Z,0.17
2022-12-03T02:03:55.811Z,0.16
2022-12-03T02:04:56.008Z,0.19
2022-12-03T02:05:55.701Z,0.17
2022-12-03T02:06:55.674Z,0.16
2022-12-03T02:07:55.691Z,0.19
2022-12-03T02:08:55.652Z,0.17
2022-12-03T02:09:55.640Z,0.16
2022-12-03T02:10:55.636Z,0.16
2022-12-03T02:11:55.644Z,0.17
2022-12-03T02:12:55.612Z,0.16
2022-12-03T02:13:55.621Z,0.16
2022-12-03T02:14:55.825Z,0.16
2022-12-03T02:15:55.651Z,0.16
2022-12-03T02:16:55.573Z,0.12
2022-12-03T02:17:55.581Z,0.13
2022-12-03T02:18:55.547Z,0.13
2022-12-03T02:19:55.550Z,0.15
2022-12-03T02:20:55.547Z,0.15
2022-12-03T02:21:55.544Z,0.16
2022-12-03T02:22:55.515Z,0.17
2022-12-03T02:23:55.512Z,0.19
2022-12-03T02:24:55.784Z,0.17
2022-12-03T02:25:55.483Z,0.13
2022-12-03T02:26:55.498Z,0.12
2022-12-03T02:27:55.462Z,0.08
2022-12-03T02:28:55.466Z,0.08
2022-12-03T02:29:55.457Z,0.10
2022-12-03T02:30:55.425Z,0.13
2022-12-03T02:31:55.504Z,0.12
2022-12-03T02:32:55.411Z,0.13
2022-12-03T02:33:55.413Z,0.15
2022-12-03T02:34:55.746Z,0.16
2022-12-03T02:36:00.391Z,0.19
2022-12-03T02:36:55.384Z,0.17
2022-12-03T02:37:55.385Z,0.19
2022-12-03T02:38:55.358Z,0.17
2022-12-03T02:39:55.363Z,0.19
2022-12-03T02:40:55.326Z,0.20
2022-12-03T02:41:55.332Z,0.19
2022-12-03T02:42:55.317Z,0.19
2022-12-03T02:43:55.337Z,0.20
2022-12-03T02:44:57.566Z,0.23
2022-12-03T02:45:55.321Z,0.22
2022-12-03T02:46:55.321Z,0.19
2022-12-03T02:47:55.295Z,0.20
2022-12-03T02:48:55.273Z,0.17
2022-12-03T02:49:55.266Z,0.20
2022-12-03T02:50:55.241Z,0.20
2022-12-03T02:51:55.277Z,0.19
2022-12-03T02:52:55.213Z,0.19
2022-12-03T02:53:55.214Z,0.19
2022-12-03T02:54:55.616Z,0.20
2022-12-03T02:55:55.183Z,0.22
2022-12-03T02:56:55.178Z,0.22
2022-12-03T02:57:55.161Z,0.25
2022-12-03T02:58:55.147Z,0.23
2022-12-03T02:59:55.145Z,0.26
2022-12-03T03:00:55.175Z,0.25
2022-12-03T03:01:55.251Z,0.30
2022-12-03T03:02:55.115Z,0.28
2022-12-03T03:03:55.114Z,0.28
2022-12-03T03:04:55.412Z,0.28
2022-12-03T03:05:55.083Z,0.30
2022-12-03T03:06:55.083Z,0.26
2022-12-03T03:07:55.098Z,0.31
2022-12-03T03:08:55.052Z,0.31
2022-12-03T03:09:55.050Z,0.30
2022-12-03T03:10:55.032Z,0.31
2022-12-03T03:11:55.049Z,0.33
2022-12-03T03:12:55.018Z,0.30
2022-12-03T03:13:55.010Z,0.33
2022-12-03T03:14:55.279Z,0.34
2022-12-03T03:15:54.999Z,0.33
2022-12-03T03:16:55.054Z,0.33
2022-12-03T03:17:55.004Z,0.33
2022-12-03T03:18:54.957Z,0.33
2022-12-03T03:19:54.990Z,0.34
2022-12-03T03:20:54.935Z,0.34
2022-12-03T03:21:54.935Z,0.34
2022-12-03T03:22:54.917Z,0.34
2022-12-03T03:23:54.914Z,0.28
2022-12-03T03:24:55.165Z,0.30
2022-12-03T03:25:54.891Z,0.26
2022-12-03T03:26:54.881Z,0.25
2022-12-03T03:27:54.860Z,0.26
2022-12-03T03:28:54.846Z,0.28
2022-12-03T03:29:54.847Z,0.25
2022-12-03T03:30:54.833Z,0.23
2022-12-03T03:31:54.927Z,0.25
2022-12-03T03:32:54.810Z,0.25
2022-12-03T03:33:54.807Z,0.26
2022-12-03T03:34:55.154Z,0.28
2022-12-03T03:35:54.784Z,0.30
2022-12-03T03:36:54.787Z,0.28
2022-12-03T03:37:54.768Z,0.30
2022-12-03T03:38:54.752Z,0.30
2022-12-03T03:39:54.740Z,0.30
2022-12-03T03:40:54.736Z,0.28
2022-12-03T03:41:54.734Z,0.31
2022-12-03T03:42:54.720Z,0.31
2022-12-03T03:43:54.701Z,0.30
2022-12-03T03:44:54.976Z,0.30
2022-12-03T03:45:54.760Z,0.31
2022-12-03T03:46:54.691Z,0.31
2022-12-03T03:47:54.661Z,0.28
2022-12-03T03:48:54.655Z,0.25
2022-12-03T03:49:54.648Z,0.22
2022-12-03T03:50:54.637Z,0.22
2022-12-03T03:51:54.644Z,0.20
2022-12-03T03:52:54.643Z,0.16
2022-12-03T03:53:54.628Z,0.15
2022-12-03T03:54:54.909Z,0.16
2022-12-03T03:55:54.601Z,0.16
2022-12-03T03:56:54.588Z,0.17
2022-12-03T03:57:54.561Z,0.19
2022-12-03T03:58:54.555Z,0.17
2022-12-03T03:59:54.547Z,0.16
2022-12-03T04:00:54.594Z,0.16
2022-12-03T04:01:54.527Z,0.15
2022-12-03T04:02:54.518Z,0.15
2022-12-03T04:03:54.524Z,0.13
2022-12-03T04:04:54.769Z,0.15
2022-12-03T04:05:54.483Z,0.16
2022-12-03T04:06:54.486Z,0.17
2022-12-03T04:07:54.502Z,0.16
2022-12-03T04:08:54.454Z,0.16
2022-12-03T04:09:54.444Z,0.19
2022-12-03T04:10:54.441Z,0.22
2022-12-03T04:11:54.431Z,0.20
2022-12-03T04:12:54.412Z,0.19
2022-12-03T04:13:54.397Z,0.20
2022-12-03T04:14:54.585Z,0.22
2022-12-03T04:15:54.391Z,0.23
2022-12-03T04:16:54.436Z,0.23
2022-12-03T04:17:54.360Z,0.25
2022-12-03T04:18:54.353Z,0.26
2022-12-03T04:19:54.340Z,0.30
2022-12-03T04:20:54.337Z,0.26
2022-12-03T04:21:54.343Z,0.26
2022-12-03T04:22:54.320Z,0.28
2022-12-03T04:23:54.298Z,0.28
2022-12-03T04:24:54.645Z,0.26
2022-12-03T04:25:54.290Z,0.25
2022-12-03T04:26:54.289Z,0.25
2022-12-03T04:27:54.258Z,0.23
2022-12-03T04:28:54.262Z,0.22
2022-12-03T04:29:54.240Z,0.23
2022-12-03T04:30:54.286Z,0.23
2022-12-03T04:31:54.230Z,0.25
2022-12-03T04:32:54.211Z,0.28
2022-12-03T04:33:54.202Z,0.25
2022-12-03T04:34:54.629Z,0.28
2022-12-03T04:35:54.255Z,0.28
2022-12-03T04:36:54.193Z,0.25
2022-12-03T04:37:54.156Z,0.28
2022-12-03T04:38:54.155Z,0.28
2022-12-03T04:39:54.142Z,0.28
2022-12-03T04:40:54.142Z,0.28
2022-12-03T04:41:54.138Z,0.25
2022-12-03T04:42:54.113Z,0.22
2022-12-03T04:43:54.097Z,0.25
2022-12-03T04:44:54.368Z,0.25
2022-12-03T04:45:54.226Z,0.28
2022-12-03T04:46:54.068Z,0.30
2022-12-03T04:47:54.057Z,0.19
2022-12-03T04:48:54.052Z,0.16
2022-12-03T04:49:54.061Z,0.16
2022-12-03T04:50:54.036Z,0.13
2022-12-03T04:51:54.016Z,0.13
2022-12-03T04:52:54.051Z,0.12
2022-12-03T04:53:54.034Z,0.08
2022-12-03T04:54:54.339Z,0.05
2022-12-03T04:55:53.988Z,0.05
2022-12-03T04:56:53.977Z,0.04
2022-12-03T04:57:53.958Z,0.02
2022-12-03T04:58:53.949Z,0.02
2022-12-03T04:59:53.954Z,0.05
2022-12-03T05:00:53.954Z,0.07
2022-12-03T05:01:53.999Z,0.07
2022-12-03T05:02:53.960Z,0.10
2022-12-03T05:03:53.900Z,0.08
2022-12-03T05:04:54.295Z,0.07
2022-12-03T05:05:53.883Z,0.08
2022-12-03T05:06:53.883Z,0.05
2022-12-03T05:07:53.938Z,0.07
2022-12-03T05:08:53.861Z,0.12
2022-12-03T05:09:53.859Z,0.12
2022-12-03T05:10:53.832Z,0.10
2022-12-03T05:11:53.813Z,0.15
2022-12-03T05:12:53.804Z,0.16
2022-12-03T05:13:53.788Z,0.16
2022-12-03T05:14:54.067Z,0.20
2022-12-03T05:15:53.781Z,0.19
2022-12-03T05:16:53.838Z,0.20
2022-12-03T05:17:53.754Z,0.20
2022-12-03T05:18:53.743Z,0.17
2022-12-03T05:19:53.770Z,0.17
2022-12-03T05:20:53.943Z,0.15
2022-12-03T05:21:53.720Z,0.13
2022-12-03T05:22:53.710Z,0.10
2022-12-03T05:23:53.704Z,0.10
2022-12-03T05:24:53.962Z,0.08
2022-12-03T05:25:53.679Z,0.10
2022-12-03T05:26:53.676Z,0.10
2022-12-03T05:27:53.661Z,0.12
2022-12-03T05:28:53.649Z,0.10
2022-12-03T05:29:53.656Z,0.15
2022-12-03T05:30:53.697Z,0.15
2022-12-03T05:31:53.622Z,0.16
2022-12-03T05:32:53.606Z,0.15
2022-12-03T05:33:53.589Z,0.16
2022-12-03T05:34:53.924Z,0.13
2022-12-03T05:35:53.566Z,0.08
2022-12-03T05:36:53.581Z,0.10
2022-12-03T05:37:53.554Z,0.10
2022-12-03T05:38:53.566Z,0.08
2022-12-03T05:39:53.552Z,0.12
2022-12-03T05:40:53.536Z,0.10
2022-12-03T05:41:53.510Z,0.08
2022-12-03T05:42:53.502Z,0.10
2022-12-03T05:43:53.503Z,0.08
2022-12-03T05:44:53.671Z,0.12
2022-12-03T05:45:53.565Z,0.12
2022-12-03T05:46:53.465Z,0.10
2022-12-03T05:47:53.451Z,0.10
2022-12-03T05:48:53.448Z,0.08
2022-12-03T05:49:53.456Z,0.05
2022-12-03T05:50:53.423Z,0.05
2022-12-03T05:51:58.156Z,0.05
2022-12-03T05:52:53.419Z,0.05
2022-12-03T05:53:53.391Z,0.05
2022-12-03T05:54:53.817Z,0.07
2022-12-03T05:55:53.372Z,0.04
2022-12-03T05:56:53.360Z,0.07
2022-12-03T05:57:53.354Z,0.08
2022-12-03T05:58:53.357Z,0.08
2022-12-03T05:59:53.357Z,0.05
2022-12-03T06:00:53.330Z,0.10
2022-12-03T06:01:53.315Z,0.08
2022-12-03T06:02:53.500Z,0.08
2022-12-03T06:03:53.432Z,0.08
2022-12-03T06:04:53.714Z,0.05
2022-12-03T06:05:53.280Z,0.07
2022-12-03T06:06:53.269Z,0.08
2022-12-03T06:07:53.340Z,0.08
2022-12-03T06:08:53.247Z,0.08
2022-12-03T06:09:53.251Z,0.07
2022-12-03T06:10:53.224Z,0.05
2022-12-03T06:11:53.213Z,0.04
2022-12-03T06:12:53.219Z,0.04
2022-12-03T06:13:53.209Z,0.04
2022-12-03T06:14:53.571Z,0.02
2022-12-03T06:15:53.260Z,-0.02
2022-12-03T06:16:53.180Z,-0.05
2022-12-03T06:17:53.165Z,-0.03
2022-12-03T06:18:53.145Z,-0.09
2022-12-03T06:19:53.144Z,-0.08
2022-12-03T06:20:53.126Z,-0.09
2022-12-03T06:21:53.122Z,-0.09
2022-12-03T06:22:53.054Z,-0.08
2022-12-03T06:23:53.089Z,-0.08
2022-12-03T06:24:53.385Z,-0.06
2022-12-03T06:25:53.049Z,-0.03
2022-12-03T06:26:53.028Z,-0.03
2022-12-03T06:27:53.014Z,-0.03
2022-12-03T06:28:52.993Z,-0.05
2022-12-03T06:29:52.988Z,-0.06
2022-12-03T06:30:53.104Z,-0.03
2022-12-03T06:31:52.990Z,-0.06
2022-12-03T06:32:52.974Z,-0.05
2022-12-03T06:33:52.968Z,-0.05
2022-12-03T06:34:53.359Z,-0.05
2022-12-03T06:35:52.949Z,-0.05
2022-12-03T06:36:52.937Z,-0.06
2022-12-03T06:37:52.897Z,-0.08
2022-12-03T06:38:52.917Z,-0.08
2022-12-03T06:39:52.883Z,-0.09
2022-12-03T06:40:52.898Z,-0.09
2022-12-03T06:41:52.868Z,-0.12
2022-12-03T06:42:52.863Z,-0.14
2022-12-03T06:43:52.841Z,-0.16
2022-12-03T06:44:53.330Z,-0.14
2022-12-03T06:45:52.824Z,-0.14
2022-12-03T06:46:52.963Z,-0.16
2022-12-03T06:47:52.807Z,-0.14
2022-12-03T06:48:52.819Z,-0.17
2022-12-03T06:49:52.840Z,-0.16
2022-12-03T06:50:52.800Z,-0.09
2022-12-03T06:51:52.777Z,-0.14
2022-12-03T06:52:52.764Z,-0.08
2022-12-03T06:53:52.821Z,-0.09
2022-12-03T06:54:53.061Z,-0.08
2022-12-03T06:55:52.742Z,-0.06
2022-12-03T06:56:52.751Z,-0.06
2022-12-03T06:57:52.780Z,-0.05
2022-12-03T06:58:52.695Z,-0.03
2022-12-03T06:59:52.852Z,-0.02
2022-12-03T07:00:52.680Z,-0.03
2022-12-03T07:01:52.712Z,-0.05
2022-12-03T07:02:52.750Z,-0.03
2022-12-03T07:03:52.654Z,-0.01
2022-12-03T07:04:52.763Z,-0.03
2022-12-03T07:05:52.671Z,-0.02
2022-12-03T07:06:52.631Z,-0.05
2022-12-03T07:07:52.648Z,-0.03
2022-12-03T07:08:52.605Z,-0.03
2022-12-03T07:09:52.595Z,-0.03
2022-12-03T07:10:52.575Z,-0.05
2022-12-03T07:11:52.641Z,-0.05
2022-12-03T07:12:52.579Z,-0.05
2022-12-03T07:13:52.544Z,-0.06
2022-12-03T07:14:52.824Z,-0.06
2022-12-03T07:15:52.572Z,-0.09
2022-12-03T07:16:52.522Z,-0.14
2022-12-03T07:17:52.505Z,-0.16
2022-12-03T07:18:52.495Z,-0.16
2022-12-03T07:19:52.486Z,-0.17
2022-12-03T07:20:52.477Z,-0.17
2022-12-03T07:21:52.471Z,-0.17
2022-12-03T07:22:52.461Z,-0.17
2022-12-03T07:23:52.440Z,-0.17
2022-12-03T07:24:52.958Z,-0.16
2022-12-03T07:25:52.508Z,-0.17
2022-12-03T07:26:52.434Z,-0.16
2022-12-03T07:27:52.423Z,-0.16
2022-12-03T07:28:52.402Z,-0.13
2022-12-03T07:29:52.382Z,-0.14
2022-12-03T07:30:52.408Z,-0.19
2022-12-03T07:31:52.485Z,-0.23
2022-12-03T07:32:52.400Z,-0.21
2022-12-03T07:33:52.341Z,-0.31
2022-12-03T07:34:52.781Z,-0.34
2022-12-03T07:35:52.357Z,-0.35
2022-12-03T07:36:52.334Z,-0.32
2022-12-03T07:37:52.313Z,-0.32
2022-12-03T07:38:52.302Z,-0.30
2022-12-03T07:39:52.282Z,-0.31
2022-12-03T07:40:52.291Z,-0.30
2022-12-03T07:41:52.275Z,-0.27
2022-12-03T07:42:52.264Z,-0.26
2022-12-03T07:43:52.242Z,-0.26
2022-12-03T07:44:52.454Z,-0.23
2022-12-03T07:45:52.217Z,-0.24
2022-12-03T07:46:52.308Z,-0.23
2022-12-03T07:47:52.198Z,-0.23
2022-12-03T07:48:52.214Z,-0.26
2022-12-03T07:49:52.189Z,-0.31
2022-12-03T07:50:52.179Z,-0.32
2022-12-03T07:51:52.188Z,-0.32
2022-12-03T07:52:52.160Z,-0.32
2022-12-03T07:53:52.158Z,-0.34
2022-12-03T07:54:52.452Z,-0.32
2022-12-03T07:55:52.133Z,-0.27
2022-12-03T07:56:54.410Z,-0.31
2022-12-03T07:57:52.133Z,-0.26
2022-12-03T07:58:52.127Z,-0.24
2022-12-03T07:59:52.095Z,-0.27
2022-12-03T08:00:52.122Z,-0.24
2022-12-03T08:01:52.125Z,-0.27
2022-12-03T08:02:52.152Z,-0.30
2022-12-03T08:03:52.066Z,-0.26
2022-12-03T08:04:52.545Z,-0.27
2022-12-03T08:05:52.033Z,-0.30
2022-12-03T08:06:52.023Z,-0.30
2022-12-03T08:07:52.071Z,-0.24
2022-12-03T08:08:51.989Z,-0.26
2022-12-03T08:09:52.001Z,-0.24
2022-12-03T08:10:51.968Z,-0.23
2022-12-03T08:11:51.991Z,-0.21
2022-12-03T08:12:51.952Z,-0.24
2022-12-03T08:13:51.947Z,-0.19
2022-12-03T08:14:52.441Z,-0.19
2022-12-03T08:15:51.931Z,-0.19
2022-12-03T08:16:52.056Z,-0.21
2022-12-03T08:17:51.931Z,-0.21
2022-12-03T08:18:51.905Z,-0.21
2022-12-03T08:19:51.901Z,-0.19
2022-12-03T08:20:51.885Z,-0.20
2022-12-03T08:21:55.251Z,-0.19
2022-12-03T08:22:51.859Z,-0.17
2022-12-03T08:23:51.850Z,-0.17
2022-12-03T08:24:52.257Z,-0.17
2022-12-03T08:25:51.840Z,-0.16
2022-12-03T08:26:51.822Z,-0.12
2022-12-03T08:27:51.822Z,-0.13
2022-12-03T08:28:51.807Z,-0.13
2022-12-03T08:29:51.810Z,-0.06
2022-12-03T08:30:51.772Z,-0.06
2022-12-03T08:31:51.861Z,-0.05
2022-12-03T08:32:51.764Z,-0.05
2022-12-03T08:33:51.747Z,-0.03
2022-12-03T08:34:52.058Z,-0.02
2022-12-03T08:35:51.732Z,-0.08
2022-12-03T08:36:51.744Z,-0.12
2022-12-03T08:37:51.745Z,-0.13
2022-12-03T08:38:51.712Z,-0.14
2022-12-03T08:39:51.702Z,-0.12
2022-12-03T08:40:51.696Z,-0.12
2022-12-03T08:41:51.698Z,-0.12
2022-12-03T08:42:51.662Z,-0.06
2022-12-03T08:43:51.645Z,-0.06
2022-12-03T08:44:51.990Z,-0.03
2022-12-03T08:45:51.727Z,-0.02
2022-12-03T08:46:51.651Z,-0.02
2022-12-03T08:47:51.618Z,-0.02
2022-12-03T08:48:51.627Z,-0.01
2022-12-03T08:49:51.585Z,-0.02
2022-12-03T08:50:51.580Z,-0.01
2022-12-03T08:51:51.612Z,-0.01
2022-12-03T08:52:51.562Z,0.02
2022-12-03T08:53:55.357Z,0.04
2022-12-03T08:54:51.826Z,0.08
2022-12-03T08:55:51.531Z,0.13
2022-12-03T08:56:51.533Z,0.15
2022-12-03T08:57:51.506Z,0.16
2022-12-03T08:58:51.498Z,0.17
2022-12-03T08:59:51.495Z,0.22
2022-12-03T09:00:51.517Z,0.19
2022-12-03T09:01:51.536Z,0.22
2022-12-03T09:02:51.508Z,0.26
2022-12-03T09:03:51.508Z,0.28
2022-12-03T09:04:51.702Z,0.25
2022-12-03T09:05:51.442Z,0.23
2022-12-03T09:06:51.460Z,0.25
2022-12-03T09:07:51.411Z,0.28
2022-12-03T09:08:51.440Z,0.30
2022-12-03T09:09:51.387Z,0.31
2022-12-03T09:10:51.371Z,0.34
2022-12-03T09:11:51.465Z,0.38
2022-12-03T09:12:51.366Z,0.37
2022-12-03T09:13:51.373Z,0.40
2022-12-03T09:14:51.572Z,0.40
2022-12-03T09:15:51.351Z,0.43
2022-12-03T09:16:51.409Z,0.45
2022-12-03T09:17:51.307Z,0.48
2022-12-03T09:18:51.310Z,0.43
2022-12-03T09:19:51.299Z,0.49
2022-12-03T09:20:51.298Z,0.52
2022-12-03T09:21:51.339Z,0.56
2022-12-03T09:22:51.249Z,0.57
2022-12-03T09:23:51.276Z,0.64
2022-12-03T09:24:51.390Z,0.68
2022-12-03T09:25:51.239Z,0.70
2022-12-03T09:26:51.253Z,0.71
2022-12-03T09:27:51.218Z,0.74
2022-12-03T09:28:51.200Z,0.78
2022-12-03T09:29:51.186Z,0.81
2022-12-03T09:30:51.177Z,0.86
2022-12-03T09:31:51.341Z,0.86
2022-12-03T09:32:51.163Z,0.90
2022-12-03T09:33:51.142Z,0.93
2022-12-03T09:34:51.414Z,0.90
2022-12-03T09:35:51.122Z,0.99
2022-12-03T09:36:51.118Z,0.95
2022-12-03T09:37:51.112Z,0.98
2022-12-03T09:38:51.087Z,0.96
2022-12-03T09:39:51.110Z,0.90
2022-12-03T09:40:51.068Z,0.90
2022-12-03T09:41:51.104Z,0.86
2022-12-03T09:42:51.059Z,0.80
2022-12-03T09:44:03.996Z,0.78
2022-12-03T09:44:51.506Z,0.75
2022-12-03T09:45:51.059Z,0.72
2022-12-03T09:46:51.034Z,0.72
2022-12-03T09:47:51.024Z,0.75
2022-12-03T09:48:50.988Z,0.74
2022-12-03T09:49:51.256Z,0.71
2022-12-03T09:50:50.965Z,0.68
2022-12-03T09:51:51.043Z,0.64
2022-12-03T09:52:50.949Z,0.68
2022-12-03T09:53:50.959Z,0.67
2022-12-03T09:54:50.932Z,0.64
2022-12-03T09:55:50.915Z,0.70
2022-12-03T09:56:50.922Z,0.64
2022-12-03T09:57:50.901Z,0.70
2022-12-03T09:58:50.894Z,0.67
2022-12-03T09:59:51.199Z,0.63
2022-12-03T10:00:50.894Z,0.62
2022-12-03T10:01:51.020Z,0.59
2022-12-03T10:02:50.855Z,0.56
2022-12-03T10:03:50.834Z,0.57
2022-12-03T10:04:51.032Z,0.59
2022-12-03T10:05:50.814Z,0.57
2022-12-03T10:06:50.821Z,0.59
2022-12-03T10:07:50.892Z,0.57
2022-12-03T10:08:50.812Z,0.56
2022-12-03T10:09:51.058Z,0.51
2022-12-03T10:10:50.757Z,0.48
2022-12-03T10:11:50.773Z,0.49
2022-12-03T10:12:50.739Z,0.49
2022-12-03T10:13:50.733Z,0.45
2022-12-03T10:14:50.937Z,0.40
2022-12-03T10:15:50.709Z,0.38
2022-12-03T10:16:50.868Z,0.38
2022-12-03T10:17:50.727Z,0.38
2022-12-03T10:18:50.680Z,0.35
2022-12-03T10:19:50.748Z,0.34
2022-12-03T10:20:50.669Z,0.35
2022-12-03T10:21:50.674Z,0.37
2022-12-03T10:22:50.646Z,0.37
2022-12-03T10:23:55.094Z,0.40
2022-12-03T10:24:50.716Z,0.40
2022-12-03T10:25:50.617Z,0.41
2022-12-03T10:26:50.613Z,0.38
2022-12-03T10:27:50.597Z,0.41
2022-12-03T10:28:50.584Z,0.38
2022-12-03T10:29:50.708Z,0.38
2022-12-03T10:30:50.571Z,0.37
2022-12-03T10:31:50.571Z,0.38
2022-12-03T10:32:50.551Z,0.35
2022-12-03T10:33:50.541Z,0.34
2022-12-03T10:34:50.656Z,0.31
2022-12-03T10:35:50.515Z,0.26
2022-12-03T10:36:50.513Z,0.25
2022-12-03T10:37:50.518Z,0.23
2022-12-03T10:38:50.493Z,0.25
2022-12-03T10:39:55.536Z,0.26
2022-12-03T10:40:50.466Z,0.28
2022-12-03T10:41:50.473Z,0.30
2022-12-03T10:42:50.451Z,0.34
2022-12-03T10:43:50.436Z,0.35
2022-12-03T10:44:50.548Z,0.35
2022-12-03T10:45:50.508Z,0.40
2022-12-03T10:46:50.550Z,0.41
2022-12-03T10:47:50.502Z,0.44
2022-12-03T10:48:50.379Z,0.45
2022-12-03T10:49:50.374Z,0.52
2022-12-03T10:50:50.354Z,0.52
2022-12-03T10:51:50.368Z,0.52
2022-12-03T10:52:50.346Z,0.56
2022-12-03T10:53:50.352Z,0.59
2022-12-03T10:54:50.487Z,0.62
2022-12-03T10:55:50.318Z,0.59
2022-12-03T10:56:50.311Z,0.62
2022-12-03T10:57:50.306Z,0.63
2022-12-03T10:58:50.300Z,0.64
2022-12-03T10:59:50.283Z,0.68
2022-12-03T11:00:50.258Z,0.71
2022-12-03T11:01:50.347Z,0.72
2022-12-03T11:02:56.480Z,0.72
2022-12-03T11:03:50.398Z,0.72
2022-12-03T11:04:50.338Z,0.74
2022-12-03T11:05:50.207Z,0.72
2022-12-03T11:06:50.212Z,0.74
2022-12-03T11:07:50.283Z,0.72
2022-12-03T11:08:56.267Z,0.71
2022-12-03T11:09:50.193Z,0.71
2022-12-03T11:10:50.166Z,0.72
2022-12-03T11:11:50.170Z,0.71
2022-12-03T11:12:50.158Z,0.72
2022-12-03T11:13:50.154Z,0.72
2022-12-03T11:14:50.178Z,0.71
2022-12-03T11:15:50.191Z,0.74
2022-12-03T11:16:50.131Z,0.72
2022-12-03T11:17:50.106Z,0.70
2022-12-03T11:18:50.104Z,0.68
2022-12-03T11:19:50.102Z,0.63
2022-12-03T11:20:50.058Z,0.60
2022-12-03T11:21:50.085Z,0.56
2022-12-03T11:22:50.067Z,0.60
2022-12-03T11:23:50.044Z,0.57
2022-12-03T11:24:50.022Z,0.57
2022-12-03T11:25:50.052Z,0.57
2022-12-03T11:26:50.005Z,0.57
2022-12-03T11:27:50.005Z,0.59
2022-12-03T11:28:49.990Z,0.57
2022-12-03T11:29:49.967Z,0.57
2022-12-03T11:30:50.116Z,0.59
2022-12-03T11:31:50.040Z,0.59
2022-12-03T11:32:49.931Z,0.62
2022-12-03T11:33:49.924Z,0.64
2022-12-03T11:34:49.936Z,0.64
2022-12-03T11:35:49.923Z,0.68
2022-12-03T11:37:01.500Z,0.68
2022-12-03T11:37:49.897Z,0.71
2022-12-03T11:38:53.320Z,0.71
2022-12-03T11:39:49.906Z,0.72
2022-12-03T11:40:49.860Z,0.68
2022-12-03T11:41:49.862Z,0.67
2022-12-03T11:42:49.830Z,0.63
2022-12-03T11:43:49.818Z,0.63
2022-12-03T11:44:49.808Z,0.60
2022-12-03T11:45:49.811Z,0.59
2022-12-03T11:46:49.929Z,0.63
2022-12-03T11:47:49.784Z,0.59
2022-12-03T11:48:49.792Z,0.53
2022-12-03T11:49:49.759Z,0.56
2022-12-03T11:50:49.756Z,0.53
2022-12-03T11:51:49.763Z,0.53
2022-12-03T11:52:49.737Z,0.56
2022-12-03T11:53:49.740Z,0.60
2022-12-03T11:54:49.703Z,0.60
2022-12-03T11:55:49.722Z,0.63
2022-12-03T11:56:49.707Z,0.62
2022-12-03T11:57:49.677Z,0.64
2022-12-03T11:58:49.697Z,0.64
2022-12-03T11:59:49.662Z,0.67
2022-12-03T12:00:49.676Z,0.68
2022-12-03T12:01:49.648Z,0.70
2022-12-03T12:02:49.700Z,0.72
2022-12-03T12:03:49.845Z,0.72
2022-12-03T12:04:49.609Z,0.72
2022-12-03T12:05:49.605Z,0.72
2022-12-03T12:06:53.329Z,0.75
2022-12-03T12:07:49.703Z,0.74
2022-12-03T12:08:49.583Z,0.74
2022-12-03T12:09:49.557Z,0.75
2022-12-03T12:10:49.555Z,0.75
2022-12-03T12:11:49.542Z,0.75
2022-12-03T12:12:54.870Z,0.75
2022-12-03T12:13:49.565Z,0.74
2022-12-03T12:14:49.521Z,0.72
2022-12-03T12:15:49.579Z,0.68
2022-12-03T12:16:49.547Z,0.62
2022-12-03T12:17:49.491Z,0.62
2022-12-03T12:18:53.871Z,0.60
2022-12-03T12:19:54.190Z,0.56
2022-12-03T12:20:49.450Z,0.59
2022-12-03T12:21:49.429Z,0.59
2022-12-03T12:22:49.456Z,0.57
2022-12-03T12:23:49.427Z,0.52
2022-12-03T12:24:49.405Z,0.53
2022-12-03T12:25:53.922Z,0.59
2022-12-03T12:26:49.395Z,0.56
2022-12-03T12:27:49.383Z,0.59
2022-12-03T12:28:49.362Z,0.60
2022-12-03T12:29:49.358Z,0.53
2022-12-03T12:30:49.358Z,0.51
2022-12-03T12:31:53.667Z,0.51
2022-12-03T12:32:49.379Z,0.51
2022-12-03T12:33:49.306Z,0.49
2022-12-03T12:34:49.317Z,0.52
2022-12-03T12:35:49.308Z,0.51
2022-12-03T12:36:49.296Z,0.52
2022-12-03T12:37:53.485Z,0.53
2022-12-03T12:38:49.276Z,0.57
2022-12-03T12:39:49.239Z,0.56
2022-12-03T12:40:49.268Z,0.57
2022-12-03T12:41:49.245Z,0.59
2022-12-03T12:42:49.226Z,0.57
2022-12-03T12:43:49.202Z,0.57
2022-12-03T12:44:49.194Z,0.57
2022-12-03T12:45:49.192Z,0.53
2022-12-03T12:46:49.357Z,0.56
2022-12-03T12:47:49.274Z,0.56
2022-12-03T12:48:49.156Z,0.56
2022-12-03T12:49:51.848Z,0.57
2022-12-03T12:50:49.149Z,0.57
2022-12-03T12:51:49.118Z,0.56
2022-12-03T12:52:49.158Z,0.60
2022-12-03T12:53:49.100Z,0.60
2022-12-03T12:54:49.098Z,0.59
2022-12-03T12:55:49.076Z,0.60
2022-12-03T12:56:49.067Z,0.60
2022-12-03T12:57:49.137Z,0.64
2022-12-03T12:58:49.054Z,0.68
2022-12-03T12:59:49.040Z,0.60
2022-12-03T13:00:49.089Z,0.62
2022-12-03T13:01:49.057Z,0.60
2022-12-03T13:02:49.122Z,0.57
2022-12-03T13:03:48.997Z,0.59
2022-12-03T13:04:48.992Z,0.53
2022-12-03T13:05:49.014Z,0.48
2022-12-03T13:06:48.965Z,0.49
2022-12-03T13:07:49.034Z,0.45
2022-12-03T13:08:48.958Z,0.52
2022-12-03T13:09:48.932Z,0.48
2022-12-03T13:10:48.930Z,0.52
2022-12-03T13:11:48.905Z,0.52
2022-12-03T13:12:48.922Z,0.57
2022-12-03T13:13:48.887Z,0.57